Time;durP1;ratioP1;P1;durP2;ratioP2;P2;SDS_P1;SDS_P2;PMS_P1;PMS_P2;Temp;Humidity;BMP_temperature;BMP_pressure;BME280_temperature;BME280_humidity;BME280_pressure;Samples;Min_cycle;Max_cycle;Signal;HPM_P1;HPM_P2
2021/12/06 00:01:31;;;;;;;10.47;8.73;;;;;;;2.84;100.00;99452.84;4967816;28;20723;-61
2021/12/06 00:04:03;;;;;;;10.23;7.60;;;;;;;2.71;100.00;99456.66;4986841;28;20189;-61
2021/12/06 00:06:33;;;;;;;8.13;7.33;;;;;;;2.89;100.00;99456.06;4992129;28;20181;-61
2021/12/06 00:08:59;;;;;;;8.73;7.57;;;;;;;2.98;100.00;99465.09;4995940;28;20177;-62
2021/12/06 00:11:24;;;;;;;9.37;8.27;;;;;;;2.98;100.00;99472.72;5001081;28;20291;-62
2021/12/06 00:13:50;;;;;;;9.87;8.00;;;;;;;3.07;100.00;99472.38;5011208;28;20181;-62
2021/12/06 00:16:20;;;;;;;12.00;8.87;;;;;;;3.06;100.00;99472.44;5001259;28;20311;-62
2021/12/06 00:18:47;;;;;;;9.00;7.87;;;;;;;2.74;100.00;99472.66;5011260;28;20748;-62
2021/12/06 00:21:13;;;;;;;9.00;8.10;;;;;;;2.91;100.00;99481.41;5000785;28;20261;-60
2021/12/06 00:23:40;;;;;;;9.80;8.40;;;;;;;3.00;100.00;99480.28;5011048;28;20247;-61
2021/12/06 00:26:06;;;;;;;9.60;8.33;;;;;;;2.96;100.00;99487.16;5011639;28;20180;-61
2021/12/06 00:28:32;;;;;;;8.13;7.30;;;;;;;3.05;100.00;99491.97;5011545;28;20281;-61
2021/12/06 00:30:58;;;;;;;11.13;8.73;;;;;;;3.13;100.00;99490.88;4980162;28;20316;-62
2021/12/06 00:33:25;;;;;;;10.40;8.47;;;;;;;3.06;100.00;99496.16;5010048;28;20170;-62
2021/12/06 00:35:50;;;;;;;10.50;8.97;;;;;;;3.01;100.00;99497.19;5011430;28;20177;-62
2021/12/06 00:38:16;;;;;;;9.63;8.30;;;;;;;2.93;100.00;99502.53;4995271;28;20210;-62
2021/12/06 00:40:47;;;;;;;9.93;7.90;;;;;;;2.91;100.00;99494.13;4975053;28;20237;-61
2021/12/06 00:43:15;;;;;;;9.17;7.70;;;;;;;2.92;100.00;99493.25;4996239;28;20182;-62
2021/12/06 00:45:41;;;;;;;10.93;8.37;;;;;;;2.88;100.00;99495.06;5002932;28;20265;-62
2021/12/06 00:48:07;;;;;;;8.50;7.60;;;;;;;2.86;100.00;99495.97;5011484;28;20197;-62
2021/12/06 00:50:34;;;;;;;9.17;7.90;;;;;;;2.55;100.00;99491.88;5000610;28;20288;-62
2021/12/06 00:53:00;;;;;;;9.10;8.17;;;;;;;2.64;100.00;99494.16;5010380;28;20550;-62
2021/12/06 00:55:26;;;;;;;8.87;7.97;;;;;;;2.78;100.00;99500.47;5011312;28;20169;-62
2021/12/06 00:57:53;;;;;;;9.40;8.13;;;;;;;2.74;100.00;99494.66;5001815;28;20202;-62
2021/12/06 01:00:35;;;;;;;10.57;8.90;;;;;;;2.67;100.00;99503.38;4961983;28;20209;-62
2021/12/06 01:03:03;;;;;;;11.57;7.87;;;;;;;2.67;100.00;99511.81;4971438;28;20198;-62
2021/12/06 01:05:28;;;;;;;9.93;8.57;;;;;;;2.58;100.00;99510.38;4972081;28;20251;-62
2021/12/06 01:07:54;;;;;;;9.13;8.20;;;;;;;2.59;100.00;99518.81;4972445;28;20663;-62
2021/12/06 01:10:22;;;;;;;9.73;8.73;;;;;;;2.65;100.00;99515.28;4944696;28;20201;-62
2021/12/06 01:12:48;;;;;;;10.70;8.80;;;;;;;2.60;100.00;99522.22;4971110;28;20250;-62
2021/12/06 01:15:13;;;;;;;10.00;8.60;;;;;;;2.53;100.00;99522.41;4972324;28;20262;-62
2021/12/06 01:17:39;;;;;;;10.27;8.77;;;;;;;2.38;100.00;99525.38;4971919;28;20206;-63
2021/12/06 01:20:10;;;;;;;10.93;8.70;;;;;;;2.23;100.00;99529.22;4961803;28;20254;-62
2021/12/06 01:22:50;;;;;;;9.20;8.30;;;;;;;2.19;100.00;99532.72;4970778;28;20185;-62
2021/12/06 01:25:29;;;;;;;10.73;8.60;;;;;;;2.08;100.00;99546.56;4971970;28;20192;-62
2021/12/06 01:41:19;;;;;;;9.97;8.87;;;;;;;1.47;100.00;99565.97;4961515;28;20283;-62
2021/12/06 01:44:09;;;;;;;11.10;9.90;;;;;;;1.31;100.00;99568.88;4973010;28;20211;-63
2021/12/06 01:46:38;;;;;;;11.23;9.07;;;;;;;1.28;100.00;99581.63;4975418;28;20586;-63
2021/12/06 01:49:05;;;;;;;10.13;9.10;;;;;;;1.24;100.00;99583.41;4975033;28;20169;-62
2021/12/06 01:51:31;;;;;;;11.63;10.17;;;;;;;1.18;100.00;99582.72;4963793;28;20291;-62
2021/12/06 01:53:57;;;;;;;11.67;10.57;;;;;;;1.14;100.00;99584.47;4974933;28;20172;-62
2021/12/06 01:56:22;;;;;;;13.10;11.00;;;;;;;0.78;100.00;99595.44;4974888;28;20203;-63
2021/12/06 01:58:48;;;;;;;11.40;10.27;;;;;;;0.61;100.00;99598.34;4981178;28;20247;-62
2021/12/06 02:01:13;;;;;;;12.83;10.63;;;;;;;0.64;100.00;99598.28;4964703;28;20259;-62
2021/12/06 02:03:39;;;;;;;13.33;10.53;;;;;;;0.66;100.00;99603.31;4974517;28;20184;-63
2021/12/06 02:06:04;;;;;;;11.90;10.60;;;;;;;0.67;100.00;99604.13;4974895;28;20251;-62
2021/12/06 02:08:30;;;;;;;15.00;10.77;;;;;;;0.67;100.00;99597.38;4974886;28;20786;-62
2021/12/06 02:11:00;;;;;;;12.17;10.80;;;;;;;0.70;100.00;99594.78;4964074;28;20230;-63
2021/12/06 02:13:30;;;;;;;14.53;10.63;;;;;;;0.64;100.00;99597.44;4974112;28;20560;-63
2021/12/06 02:15:56;;;;;;;16.33;11.13;;;;;;;0.64;100.00;99599.97;4974591;28;20184;-62
2021/12/06 02:21:03;;;;;;;14.63;10.97;;;;;;;0.53;100.00;99594.31;4964010;28;20243;-63
2021/12/06 02:23:29;;;;;;;15.20;11.60;;;;;;;0.51;100.00;99598.56;4973688;28;20172;-62
2021/12/06 02:25:54;;;;;;;13.00;10.90;;;;;;;0.42;100.00;99604.66;4974495;28;20204;-62
2021/12/06 02:28:20;;;;;;;15.30;11.83;;;;;;;0.45;100.00;99602.91;4974499;28;20242;-62
2021/12/06 02:30:45;;;;;;;14.37;11.67;;;;;;;0.42;100.00;99609.72;4964003;28;20691;-62
2021/12/06 02:33:11;;;;;;;13.73;11.57;;;;;;;0.48;100.00;99610.44;4973833;28;20271;-62
2021/12/06 02:35:36;;;;;;;15.03;11.07;;;;;;;0.34;100.00;99614.13;4974198;28;20168;-62
2021/12/06 02:38:06;;;;;;;14.40;12.13;;;;;;;0.37;100.00;99624.16;4998544;28;20296;-64
2021/12/06 02:40:34;;;;;;;14.53;11.53;;;;;;;0.63;100.00;99623.63;4991581;28;20227;-64
2021/12/06 02:43:02;;;;;;;13.67;11.77;;;;;;;0.70;100.00;99622.63;4973524;28;20264;-63
2021/12/06 02:45:28;;;;;;;14.33;11.90;;;;;;;0.83;100.00;99617.28;4974295;28;20179;-62
2021/12/06 02:47:56;;;;;;;16.70;12.20;;;;;;;0.68;100.00;99613.41;4974303;28;20168;-62
2021/12/06 02:50:28;;;;;;;12.87;11.17;;;;;;;0.49;100.00;99621.38;4964032;28;20229;-62
2021/12/06 02:52:55;;;;;;;13.33;11.60;;;;;;;0.56;100.00;99620.41;4973477;28;20180;-62
2021/12/06 02:55:31;;;;;;;12.30;11.00;;;;;;;0.68;100.00;99624.34;4973737;28;20176;-63
2021/12/06 02:57:59;;;;;;;13.70;11.87;;;;;;;0.77;100.00;99629.22;4976502;28;20202;-62
2021/12/06 03:00:25;;;;;;;15.43;11.93;;;;;;;0.95;100.00;99627.16;4983692;28;20239;-62
2021/12/06 03:02:51;;;;;;;15.87;12.17;;;;;;;0.97;100.00;99625.44;4992762;28;20531;-62
2021/12/06 03:05:16;;;;;;;12.63;11.30;;;;;;;0.93;100.00;99634.78;4993667;28;20180;-62
2021/12/06 03:07:46;;;;;;;14.03;11.73;;;;;;;0.86;100.00;99629.91;4993541;28;20164;-62
2021/12/06 03:10:12;;;;;;;13.03;11.73;;;;;;;0.88;100.00;99638.28;4983568;28;20206;-62
2021/12/06 03:12:37;;;;;;;14.20;12.37;;;;;;;0.98;100.00;99642.28;4992561;28;20531;-62
2021/12/06 03:15:05;;;;;;;14.37;11.43;;;;;;;1.10;100.00;99642.00;4993334;28;20167;-62
2021/12/06 03:17:32;;;;;;;13.37;10.97;;;;;;;1.24;100.00;99639.16;4993527;28;20208;-62
2021/12/06 03:19:58;;;;;;;12.17;10.93;;;;;;;1.12;100.00;99641.97;4993706;28;20567;-62
2021/12/06 03:22:24;;;;;;;12.90;10.50;;;;;;;1.28;100.00;99648.34;4982601;28;20297;-61
2021/12/06 03:24:50;;;;;;;15.70;11.60;;;;;;;1.24;100.00;99643.38;4993214;28;21052;-62
2021/12/06 03:27:18;;;;;;;16.20;11.57;;;;;;;1.35;100.00;99649.00;4993429;28;20200;-61
2021/12/06 03:29:43;;;;;;;14.43;12.07;;;;;;;1.39;100.00;99649.78;4992775;28;20592;-62
2021/12/06 03:32:10;;;;;;;12.70;11.17;;;;;;;0.96;100.00;99644.00;4982580;28;20317;-62
2021/12/06 03:34:36;;;;;;;16.50;10.93;;;;;;;0.82;100.00;99651.06;4993303;28;20172;-62
2021/12/06 03:37:04;;;;;;;14.33;11.57;;;;;;;0.76;100.00;99655.41;4993796;28;20175;-62
2021/12/06 03:39:42;;;;;;;14.93;11.70;;;;;;;0.72;100.00;99652.97;4993003;28;20295;-62
2021/12/06 03:42:09;;;;;;;11.83;10.63;;;;;;;0.75;100.00;99655.44;4982210;28;20215;-62
2021/12/06 03:44:36;;;;;;;14.33;12.43;;;;;;;0.82;100.00;99666.25;4992900;28;20172;-62
2021/12/06 03:47:08;;;;;;;13.10;11.63;;;;;;;0.87;100.00;99669.53;4993035;28;20661;-62
2021/12/06 03:49:34;;;;;;;14.37;11.97;;;;;;;0.96;100.00;99677.75;4992543;28;20207;-62
2021/12/06 03:51:59;;;;;;;13.90;11.17;;;;;;;1.04;100.00;99670.00;4981903;28;20314;-62
2021/12/06 03:54:27;;;;;;;13.50;12.10;;;;;;;1.25;100.00;99667.84;4992853;28;20711;-62
2021/12/06 03:56:53;;;;;;;13.27;11.87;;;;;;;1.34;100.00;99672.72;4992392;28;20274;-62
2021/12/06 03:59:19;;;;;;;13.63;12.23;;;;;;;1.38;100.00;99668.41;4985530;28;20294;-62
2021/12/06 04:01:47;;;;;;;14.13;12.23;;;;;;;1.38;100.00;99678.53;4971466;28;20912;-62
2021/12/06 04:04:12;;;;;;;13.80;12.17;;;;;;;1.47;100.00;99682.56;4992250;28;20666;-63
2021/12/06 04:06:39;;;;;;;13.43;12.03;;;;;;;1.40;100.00;99681.84;4973993;28;20214;-62
2021/12/06 04:09:06;;;;;;;14.70;12.50;;;;;;;1.61;100.00;99691.50;4993951;28;20172;-62
2021/12/06 04:11:33;;;;;;;13.93;11.83;;;;;;;1.70;100.00;99694.66;4982273;28;20352;-62
2021/12/06 04:13:58;;;;;;;16.23;12.50;;;;;;;1.56;100.00;99692.47;4992814;28;20636;-62
2021/12/06 04:16:24;;;;;;;15.13;13.03;;;;;;;1.53;100.00;99698.44;4965403;28;20236;-62
2021/12/06 04:18:49;;;;;;;14.33;12.10;;;;;;;1.65;100.00;99699.03;4991789;28;20229;-62
2021/12/06 04:21:16;;;;;;;14.00;12.17;;;;;;;1.73;100.00;99694.59;4981465;28;20236;-63
2021/12/06 04:23:42;;;;;;;13.07;11.13;;;;;;;1.76;100.00;99692.84;4991703;28;20299;-62
2021/12/06 04:26:08;;;;;;;14.93;13.37;;;;;;;1.82;100.00;99701.97;4974658;28;20284;-61
2021/12/06 04:28:35;;;;;;;14.63;12.10;;;;;;;1.85;100.00;99704.44;4992411;28;20175;-62
2021/12/06 04:31:03;;;;;;;15.60;12.47;;;;;;;1.86;100.00;99692.59;4955025;28;20284;-62
2021/12/06 04:33:29;;;;;;;13.63;11.70;;;;;;;1.82;100.00;99694.38;4972189;28;20173;-62
2021/12/06 04:35:54;;;;;;;14.17;12.10;;;;;;;1.82;100.00;99696.09;4972612;28;20554;-62
2021/12/06 04:38:21;;;;;;;12.43;11.13;;;;;;;1.71;100.00;99704.78;4972738;28;20219;-62
2021/12/06 04:40:47;;;;;;;13.20;11.83;;;;;;;1.65;100.00;99709.16;4962141;28;20741;-62
2021/12/06 04:43:12;;;;;;;13.60;12.30;;;;;;;1.64;100.00;99718.47;4972094;28;20202;-62
2021/12/06 04:45:38;;;;;;;14.53;12.47;;;;;;;1.60;100.00;99719.41;4972799;28;20253;-62
2021/12/06 04:48:05;;;;;;;16.03;12.30;;;;;;;1.60;100.00;99721.94;4972679;28;20631;-62
2021/12/06 04:50:32;;;;;;;13.60;11.70;;;;;;;1.50;100.00;99728.09;4962307;28;20327;-62
2021/12/06 04:53:04;;;;;;;13.47;11.33;;;;;;;1.49;100.00;99732.34;4971850;28;20616;-62
2021/12/06 04:55:41;;;;;;;14.47;12.60;;;;;;;1.38;100.00;99734.31;4972795;28;20181;-61
2021/12/06 04:58:08;;;;;;;13.40;12.03;;;;;;;1.43;100.00;99740.91;4978949;28;20196;-62
2021/12/06 05:00:48;;;;;;;14.17;12.40;;;;;;;1.44;100.00;99740.06;4962325;28;20237;-62
2021/12/06 05:03:15;;;;;;;14.40;12.27;;;;;;;1.24;100.00;99742.19;4971578;28;20177;-61
2021/12/06 05:05:47;;;;;;;13.00;11.60;;;;;;;1.16;100.00;99744.06;4972364;28;20205;-62
2021/12/06 05:08:23;;;;;;;16.87;12.57;;;;;;;1.08;100.00;99745.06;4972390;28;20176;-62
2021/12/06 05:10:49;;;;;;;13.93;12.03;;;;;;;1.04;100.00;99752.75;4961797;28;20238;-62
2021/12/06 05:13:15;;;;;;;13.63;12.23;;;;;;;0.92;100.00;99754.69;4971501;28;20184;-62
2021/12/06 05:15:41;;;;;;;13.33;11.47;;;;;;;0.97;100.00;99759.66;4972296;28;20537;-62
2021/12/06 05:18:06;;;;;;;13.20;11.77;;;;;;;1.04;100.00;99768.81;4972394;28;20606;-62
2021/12/06 05:20:34;;;;;;;13.60;12.20;;;;;;;0.85;100.00;99770.03;4948375;28;20272;-62
2021/12/06 05:23:01;;;;;;;14.13;12.13;;;;;;;0.91;100.00;99774.97;4975103;28;20172;-62
2021/12/06 05:25:26;;;;;;;13.83;11.43;;;;;;;0.89;100.00;99777.53;4976179;28;20250;-62
2021/12/06 05:27:52;;;;;;;14.20;12.73;;;;;;;1.02;100.00;99780.66;4975845;28;20231;-62
2021/12/06 05:30:23;;;;;;;16.97;12.80;;;;;;;0.98;100.00;99784.13;4966082;28;20194;-62
2021/12/06 05:32:49;;;;;;;16.23;12.83;;;;;;;1.11;100.00;99785.53;4975294;28;20168;-62
2021/12/06 05:35:15;;;;;;;16.77;12.80;;;;;;;1.18;100.00;99785.41;4976005;28;20318;-62
2021/12/06 05:37:44;;;;;;;16.60;13.67;;;;;;;1.16;100.00;99790.50;4975829;28;20193;-63
2021/12/06 05:40:18;;;;;;;15.93;13.47;;;;;;;1.20;100.00;99796.34;4965770;28;20208;-62
2021/12/06 05:42:44;;;;;;;15.13;12.03;;;;;;;1.29;100.00;99802.06;4974694;28;20174;-62
2021/12/06 05:45:11;;;;;;;16.80;13.93;;;;;;;1.24;100.00;99808.94;4975591;28;20204;-62
2021/12/06 05:47:37;;;;;;;17.67;13.40;;;;;;;1.14;100.00;99812.50;4975410;28;20661;-62
2021/12/06 05:50:04;;;;;;;14.13;12.57;;;;;;;1.07;100.00;99821.94;4972307;28;20230;-63
2021/12/06 05:52:29;;;;;;;18.27;12.43;;;;;;;1.10;100.00;99828.63;4974398;28;20231;-62
2021/12/06 05:54:55;;;;;;;14.97;13.00;;;;;;;1.04;100.00;99829.59;4975730;28;20188;-62
2021/12/06 05:57:20;;;;;;;17.40;13.47;;;;;;;0.87;100.00;99844.25;4979227;28;20265;-62
2021/12/06 05:59:46;;;;;;;18.30;14.03;;;;;;;0.81;100.00;99847.75;4978929;28;20211;-62
2021/12/06 06:02:12;;;;;;;15.10;13.43;;;;;;;0.81;100.00;99840.16;4965963;28;20242;-62
2021/12/06 06:04:38;;;;;;;18.80;13.53;;;;;;;0.83;100.00;99840.94;4977046;28;20187;-62
2021/12/06 06:07:04;;;;;;;17.27;13.47;;;;;;;0.83;100.00;99843.47;4978900;28;20251;-62
2021/12/06 06:09:29;;;;;;;16.13;14.30;;;;;;;0.74;100.00;99846.19;4967026;28;20208;-62
2021/12/06 06:11:55;;;;;;;19.17;14.27;;;;;;;0.78;100.00;99855.41;4965701;28;20314;-62
2021/12/06 06:14:20;;;;;;;17.57;14.33;;;;;;;0.85;100.00;99851.88;4994737;28;20531;-62
2021/12/06 06:16:53;;;;;;;20.07;15.50;;;;;;;0.83;100.00;99861.22;4985583;28;20171;-62
2021/12/06 06:19:24;;;;;;;19.83;15.63;;;;;;;0.93;100.00;99861.88;4994878;28;20203;-62
2021/12/06 06:21:52;;;;;;;18.70;15.97;;;;;;;0.74;100.00;99877.41;4998183;28;20217;-62
2021/12/06 06:24:17;;;;;;;20.53;16.13;;;;;;;0.98;100.00;99877.00;4996211;28;20202;-62
2021/12/06 06:26:42;;;;;;;19.83;14.90;;;;;;;1.11;100.00;99871.66;5009788;28;20641;-61
2021/12/06 06:29:10;;;;;;;18.60;14.43;;;;;;;1.17;100.00;99878.31;4994162;28;20180;-62
2021/12/06 06:31:36;;;;;;;19.70;15.70;;;;;;;1.14;100.00;99878.38;4995456;28;20238;-63
2021/12/06 06:34:02;;;;;;;18.37;14.60;;;;;;;1.24;100.00;99884.94;4997813;28;20176;-62
2021/12/06 06:36:27;;;;;;;17.17;15.27;;;;;;;1.33;100.00;99886.47;4994160;28;20191;-62
2021/12/06 06:38:53;;;;;;;17.63;14.73;;;;;;;1.36;100.00;99876.25;4994184;28;20216;-62
2021/12/06 06:41:18;;;;;;;21.47;15.47;;;;;;;1.27;100.00;99887.41;4992923;28;20238;-62
2021/12/06 06:43:43;;;;;;;19.77;14.93;;;;;;;1.31;100.00;99887.34;4999337;28;20176;-62
2021/12/06 06:46:09;;;;;;;19.13;15.37;;;;;;;1.36;100.00;99880.50;4993828;28;20236;-62
2021/12/06 06:48:34;;;;;;;20.60;15.47;;;;;;;1.34;100.00;99885.59;4993880;28;20262;-62
2021/12/06 06:51:00;;;;;;;19.23;14.93;;;;;;;1.32;100.00;99884.78;4991171;28;20314;-62
2021/12/06 06:53:26;;;;;;;20.33;15.30;;;;;;;1.27;100.00;99889.13;5001713;28;20183;-62
2021/12/06 06:55:53;;;;;;;20.20;15.73;;;;;;;1.25;100.00;99895.91;4976313;28;20559;-62
2021/12/06 06:58:18;;;;;;;21.07;15.87;;;;;;;1.28;100.00;99899.22;4999973;28;20195;-62
2021/12/06 07:00:43;;;;;;;19.40;15.97;;;;;;;1.41;100.00;99896.44;4982880;28;20569;-62
2021/12/06 07:03:09;;;;;;;22.33;14.43;;;;;;;1.41;100.00;99901.50;4993035;28;20183;-62
2021/12/06 07:05:36;;;;;;;26.37;15.67;;;;;;;1.51;100.00;99902.16;4986878;28;20191;-62
2021/12/06 07:08:02;;;;;;;17.93;14.90;;;;;;;1.59;100.00;99902.84;4992667;28;20187;-62
2021/12/06 07:10:28;;;;;;;18.70;15.80;;;;;;;1.57;100.00;99902.03;4981744;28;20238;-62
2021/12/06 07:12:55;;;;;;;17.13;14.83;;;;;;;1.69;100.00;99908.56;4984682;28;20501;-62
2021/12/06 07:15:26;;;;;;;17.00;14.57;;;;;;;1.68;100.00;99906.88;4992705;28;20268;-62
2021/12/06 07:17:52;;;;;;;19.50;15.60;;;;;;;1.79;100.00;99917.63;4992112;28;20203;-62
2021/12/06 07:20:20;;;;;;;19.17;16.00;;;;;;;1.80;100.00;99919.31;4981891;28;20932;-62
2021/12/06 07:22:47;;;;;;;19.17;15.60;;;;;;;1.82;100.00;99924.34;4987050;28;20193;-62
2021/12/06 07:25:14;;;;;;;18.17;15.40;;;;;;;1.88;100.00;99919.13;4989265;28;20212;-61
2021/12/06 07:27:40;;;;;;;17.07;14.90;;;;;;;1.63;100.00;99926.44;4992078;28;20172;-60
2021/12/06 07:30:08;;;;;;;18.07;15.37;;;;;;;1.71;100.00;99922.88;4982249;28;20217;-61
2021/12/06 07:32:34;;;;;;;17.80;15.63;;;;;;;1.62;100.00;99935.72;4983511;28;20272;-61
2021/12/06 07:34:59;;;;;;;16.93;14.33;;;;;;;1.56;100.00;99939.25;4990534;28;20190;-61
2021/12/06 07:37:24;;;;;;;15.83;14.17;;;;;;;1.54;100.00;99937.56;4987625;28;20690;-62
2021/12/06 07:39:50;;;;;;;22.03;15.40;;;;;;;1.73;100.00;99943.13;4985390;28;20754;-62
2021/12/06 07:42:16;;;;;;;17.80;15.17;;;;;;;1.88;100.00;99952.94;4985653;28;20253;-63
2021/12/06 07:44:46;;;;;;;18.97;16.20;;;;;;;1.72;100.00;99949.88;4975935;28;20250;-62
2021/12/06 07:47:13;;;;;;;22.97;15.67;;;;;;;1.81;100.00;99950.56;4945584;28;20166;-64
2021/12/06 07:49:44;;;;;;;19.30;16.27;;;;;;;1.87;100.00;99950.44;4973641;28;20199;-62
2021/12/06 07:52:13;;;;;;;21.95;19.65;;;;;;;2.05;100.00;99944.97;4982168;28;20840;-62
2021/12/06 07:54:39;;;;;;;19.50;16.27;;;;;;;1.90;100.00;99940.25;4986032;28;20197;-62
2021/12/06 07:57:08;;;;;;;18.63;16.33;;;;;;;1.99;100.00;99942.56;4995326;28;20191;-62
2021/12/06 07:59:38;;;;;;;20.30;16.57;;;;;;;1.80;100.00;99944.69;4979993;28;20293;-62
2021/12/06 08:02:05;;;;;;;18.20;14.67;;;;;;;1.87;100.00;99945.38;4961146;28;20218;-62
2021/12/06 08:04:31;;;;;;;18.67;14.30;;;;;;;1.97;100.00;99949.38;4993863;28;20182;-62
2021/12/06 08:06:57;;;;;;;19.03;15.77;;;;;;;1.97;100.00;99949.38;4985304;28;20194;-64
2021/12/06 08:12:44;;;;;;;19.30;14.23;;;;;;;2.06;100.00;99951.72;4971691;28;20305;-63
2021/12/06 08:15:10;;;;;;;17.00;15.00;;;;;;;2.24;100.00;99952.19;4970033;28;20269;-62
2021/12/06 08:17:36;;;;;;;16.73;13.73;;;;;;;2.48;100.00;99950.78;4995418;28;20552;-63
2021/12/06 08:20:06;;;;;;;16.20;14.20;;;;;;;2.65;100.00;99950.38;4992587;28;20199;-63
2021/12/06 08:22:31;;;;;;;16.90;14.23;;;;;;;2.59;100.00;99953.06;5010128;28;20201;-62
2021/12/06 08:24:57;;;;;;;16.30;14.33;;;;;;;2.90;100.00;99959.94;5011147;28;20483;-62
2021/12/06 08:27:22;;;;;;;16.37;13.77;;;;;;;3.04;100.00;99962.97;5011424;28;20582;-62
2021/12/06 08:29:48;;;;;;;19.57;14.43;;;;;;;3.01;100.00;99957.13;5009618;28;20568;-62
2021/12/06 08:32:13;;;;;;;17.73;13.77;;;;;;;2.90;100.00;99958.25;4973282;28;20309;-62
2021/12/06 08:34:41;;;;;;;16.17;13.20;;;;;;;3.07;100.00;99959.50;4991658;28;20213;-62
2021/12/06 08:37:08;;;;;;;15.30;13.27;;;;;;;2.87;99.41;99965.09;4991480;28;20175;-62
2021/12/06 08:39:35;;;;;;;15.93;13.30;;;;;;;2.78;100.00;99966.16;4987580;28;20226;-63
2021/12/06 08:42:00;;;;;;;16.90;14.40;;;;;;;2.89;100.00;99964.19;4976830;28;20660;-63
2021/12/06 08:44:25;;;;;;;15.40;13.80;;;;;;;3.12;100.00;99964.47;4984493;28;20285;-63
2021/12/06 08:46:51;;;;;;;16.83;13.43;;;;;;;3.43;99.46;99954.31;4972361;28;20606;-63
2021/12/06 08:49:17;;;;;;;14.63;12.93;;;;;;;3.99;96.53;99958.66;4971712;28;20179;-65
2021/12/06 08:51:47;;;;;;;16.77;14.10;;;;;;;4.87;89.99;99957.63;4961113;28;20228;-62
2021/12/06 08:54:14;;;;;;;15.97;14.27;;;;;;;5.74;84.46;99949.53;4971471;28;20180;-64
2021/12/06 08:56:40;;;;;;;16.67;12.33;;;;;;;6.89;76.78;99940.84;4971864;28;20192;-63
2021/12/06 08:59:06;;;;;;;12.63;10.23;;;;;;;8.26;71.48;99940.75;4994872;28;20210;-63
2021/12/06 09:01:33;;;;;;;13.10;9.80;;;;;;;10.15;62.28;99934.56;4972603;28;20700;-64
2021/12/06 09:03:59;;;;;;;10.47;9.47;;;;;;;11.41;54.77;99926.47;4991049;28;20179;-63
2021/12/06 09:06:25;;;;;;;11.43;8.97;;;;;;;12.75;51.18;99927.50;4991100;28;20229;-64
2021/12/06 09:08:51;;;;;;;11.30;9.90;;;;;;;13.02;47.58;99930.91;4995957;28;20691;-64
2021/12/06 09:11:16;;;;;;;11.43;9.13;;;;;;;13.31;47.72;99936.69;4999778;28;20618;-63
2021/12/06 09:13:42;;;;;;;9.83;8.80;;;;;;;14.13;45.35;99936.16;4969514;28;20257;-63
2021/12/06 09:16:12;;;;;;;12.77;9.63;;;;;;;13.10;46.06;99938.13;4990293;28;20183;-63
2021/12/06 09:18:40;;;;;;;12.03;10.30;;;;;;;11.64;50.17;99947.41;4983100;28;20204;-63
2021/12/06 09:21:10;;;;;;;10.13;9.07;;;;;;;10.70;53.06;99935.78;4989313;28;20254;-63
2021/12/06 09:23:36;;;;;;;11.07;9.97;;;;;;;9.94;55.60;99946.88;4997712;28;20176;-61
2021/12/06 09:26:02;;;;;;;12.37;11.10;;;;;;;9.04;58.04;99946.38;4991241;28;20204;-62
2021/12/06 09:28:28;;;;;;;13.77;11.87;;;;;;;8.27;60.96;99940.69;4990805;28;20183;-62
2021/12/06 09:30:54;;;;;;;15.37;12.13;;;;;;;7.48;64.29;99949.41;4987410;28;20233;-62
2021/12/06 09:33:20;;;;;;;13.90;12.07;;;;;;;6.76;67.75;99949.00;4987959;28;20195;-62
2021/12/06 09:35:48;;;;;;;13.70;12.30;;;;;;;6.21;70.69;99953.75;4989769;28;20183;-62
2021/12/06 09:38:18;;;;;;;12.43;11.20;;;;;;;6.01;72.16;99962.19;4985613;28;20211;-63
2021/12/06 09:40:46;;;;;;;15.10;12.60;;;;;;;5.32;75.97;99964.63;4971882;28;20231;-63
2021/12/06 09:43:13;;;;;;;17.83;13.03;;;;;;;5.43;79.36;99969.34;4990279;28;20187;-63
2021/12/06 09:45:40;;;;;;;14.10;12.70;;;;;;;6.70;75.05;99963.75;4990957;28;20179;-63
2021/12/06 09:48:06;;;;;;;13.33;11.93;;;;;;;8.86;64.35;99959.22;4990750;28;20167;-62
2021/12/06 09:50:40;;;;;;;12.47;11.20;;;;;;;10.54;56.66;99953.84;4995327;28;20239;-62
2021/12/06 09:53:08;;;;;;;11.93;10.77;;;;;;;11.90;51.18;99957.88;4990025;28;20175;-63
2021/12/06 09:55:34;;;;;;;12.93;10.83;;;;;;;12.91;48.07;99950.53;4990642;28;20210;-62
2021/12/06 09:58:00;;;;;;;12.33;11.13;;;;;;;12.51;48.80;99958.31;4982688;28;20290;-62
2021/12/06 10:00:30;;;;;;;11.43;10.33;;;;;;;11.48;50.92;99954.44;4978765;28;20564;-62
2021/12/06 10:02:56;;;;;;;11.87;10.63;;;;;;;10.66;53.12;99952.31;4990084;28;20271;-63
2021/12/06 10:05:26;;;;;;;12.20;10.90;;;;;;;9.71;55.59;99945.53;4987020;28;20283;-62
2021/12/06 10:07:53;;;;;;;12.03;10.83;;;;;;;8.65;58.85;99952.59;4993130;28;20537;-63
2021/12/06 10:10:19;;;;;;;13.37;11.90;;;;;;;7.48;63.89;99954.53;5000372;28;20194;-62
2021/12/06 10:12:48;;;;;;;12.97;11.63;;;;;;;6.65;68.80;99958.84;5012579;28;20176;-62
2021/12/06 10:15:14;;;;;;;14.23;12.70;;;;;;;6.14;71.34;99959.13;5013497;28;20171;-61
2021/12/06 10:17:40;;;;;;;13.10;11.80;;;;;;;5.95;73.54;99960.66;5013296;28;20523;-64
2021/12/06 10:20:08;;;;;;;14.23;12.80;;;;;;;5.75;75.26;99954.56;4985696;28;20206;-62
2021/12/06 10:22:33;;;;;;;14.70;13.20;;;;;;;5.63;76.96;99962.69;4986167;28;20590;-63
2021/12/06 10:25:00;;;;;;;14.73;13.23;;;;;;;5.50;77.87;99958.00;4982208;28;20187;-63
2021/12/06 10:27:26;;;;;;;16.17;14.47;;;;;;;4.72;82.04;99958.97;4974381;28;20178;-64
2021/12/06 10:30:00;;;;;;;15.67;13.93;;;;;;;4.51;85.04;99965.59;4972670;28;20203;-59
2021/12/06 10:35:52;;;;;;;18.93;14.83;;;;;;;4.62;86.89;99960.16;4979907;28;20210;-62
2021/12/06 10:38:26;;;;;;;16.13;13.97;;;;;;;4.61;86.60;99961.03;4990087;28;20253;-62
2021/12/06 10:41:02;;;;;;;14.97;13.37;;;;;;;4.78;86.27;99961.31;4980246;28;20258;-62
2021/12/06 10:43:27;;;;;;;14.83;12.60;;;;;;;4.93;85.88;99959.97;4980966;28;20216;-62
2021/12/06 10:45:54;;;;;;;17.47;13.80;;;;;;;5.11;85.46;99970.44;4992609;28;20215;-62
2021/12/06 10:48:26;;;;;;;14.97;12.77;;;;;;;5.19;84.97;99965.91;4992681;28;20183;-62
2021/12/06 10:50:51;;;;;;;14.03;12.50;;;;;;;5.33;84.08;99961.19;4981885;28;20896;-62
2021/12/06 10:53:19;;;;;;;12.60;11.13;;;;;;;5.47;83.35;99952.19;4979205;28;20188;-62
2021/12/06 10:55:46;;;;;;;12.90;11.60;;;;;;;5.41;82.64;99948.16;4984836;28;20250;-62
2021/12/06 10:58:15;;;;;;;12.93;11.37;;;;;;;5.51;81.83;99948.66;4986751;28;20226;-63
2021/12/06 11:00:51;;;;;;;12.30;11.00;;;;;;;5.42;81.90;99949.81;4982890;28;20237;-63
2021/12/06 11:03:44;;;;;;;14.03;12.40;;;;;;;5.48;82.02;99941.09;4992049;28;20226;-62
2021/12/06 11:06:16;;;;;;;12.50;11.30;;;;;;;5.15;81.92;99942.25;4993444;28;20219;-63
2021/12/06 11:08:42;;;;;;;13.27;11.83;;;;;;;5.26;82.83;99949.53;4990796;28;20176;-63
2021/12/06 11:11:20;;;;;;;14.97;13.37;;;;;;;5.28;83.77;99945.22;4980079;28;20235;-63
2021/12/06 11:13:51;;;;;;;13.13;11.83;;;;;;;5.41;83.31;99937.09;4987730;28;20191;-63
2021/12/06 11:16:21;;;;;;;15.67;13.33;;;;;;;5.61;81.80;99936.41;4978683;28;20547;-63
2021/12/06 11:18:47;;;;;;;14.17;12.67;;;;;;;5.50;81.87;99935.06;4973413;28;20208;-63
2021/12/06 11:21:17;;;;;;;14.00;12.50;;;;;;;5.68;81.48;99937.00;4946177;28;20245;-64
2021/12/06 11:24:02;;;;;;;13.67;11.53;;;;;;;5.67;80.50;99936.19;4968459;28;20650;-63
2021/12/06 11:26:29;;;;;;;12.27;11.00;;;;;;;5.72;80.42;99939.38;4973334;28;20230;-63
2021/12/06 11:28:55;;;;;;;13.10;11.80;;;;;;;5.98;80.01;99942.69;4976761;28;20887;-63
2021/12/06 11:31:21;;;;;;;11.77;10.67;;;;;;;6.09;78.25;99948.25;4974910;28;20698;-63
2021/12/06 11:33:59;;;;;;;15.37;11.97;;;;;;;6.01;78.44;99945.13;4992908;28;20261;-63
2021/12/06 11:36:30;;;;;;;12.77;11.40;;;;;;;6.15;79.63;99942.06;4972395;28;20190;-61
2021/12/06 11:39:05;;;;;;;13.33;10.27;;;;;;;6.07;78.19;99937.25;4989070;28;20205;-62
2021/12/06 11:41:31;;;;;;;12.37;10.97;;;;;;;5.92;79.23;99945.47;4962363;28;20272;-63
2021/12/06 11:44:14;;;;;;;11.97;10.77;;;;;;;5.77;79.20;99940.03;4982982;28;20193;-59
2021/12/06 11:46:39;;;;;;;15.70;13.63;;;;;;;5.59;79.43;99943.28;4991434;28;20209;-61